createdAt,value
2022-09-28T00:00:49.768Z,0
2022-09-28T00:01:53.348Z,0
2022-09-28T00:02:50.550Z,0
2022-09-28T00:03:49.753Z,0
2022-09-28T00:04:49.684Z,0
2022-09-28T00:05:49.669Z,0
2022-09-28T00:06:49.656Z,0
2022-09-28T00:07:52.822Z,0
2022-09-28T00:08:49.689Z,0
2022-09-28T00:09:49.683Z,0
2022-09-28T00:10:49.691Z,0
2022-09-28T00:11:49.715Z,0
2022-09-28T00:12:52.821Z,0
2022-09-28T00:13:49.708Z,0
2022-09-28T00:14:49.704Z,0
2022-09-28T00:15:49.687Z,0
2022-09-28T00:16:49.958Z,0
2022-09-28T00:17:52.678Z,0
2022-09-28T00:18:52.475Z,0
2022-09-28T00:19:49.668Z,0
2022-09-28T00:20:49.698Z,0
2022-09-28T00:21:49.750Z,0
2022-09-28T00:22:49.696Z,0
2022-09-28T00:23:52.768Z,0
2022-09-28T00:24:49.684Z,0
2022-09-28T00:25:49.681Z,0
2022-09-28T00:26:49.677Z,0
2022-09-28T00:27:49.690Z,0
2022-09-28T00:28:49.711Z,0
2022-09-28T00:29:52.731Z,0
2022-09-28T00:30:49.807Z,0
2022-09-28T00:31:50.100Z,0
2022-09-28T00:32:49.705Z,0
2022-09-28T00:33:49.745Z,0
2022-09-28T00:34:52.887Z,0
2022-09-28T00:35:49.688Z,0
2022-09-28T00:36:49.762Z,0
2022-09-28T00:37:49.709Z,0
2022-09-28T00:38:49.732Z,0
2022-09-28T00:39:49.751Z,0
2022-09-28T00:40:52.769Z,0
2022-09-28T00:41:49.715Z,0
2022-09-28T00:42:49.711Z,0
2022-09-28T00:43:49.775Z,0
2022-09-28T00:44:49.710Z,0
2022-09-28T00:45:52.723Z,0
2022-09-28T00:46:49.721Z,0
2022-09-28T00:47:49.748Z,0
2022-09-28T00:48:49.735Z,0
2022-09-28T00:49:49.737Z,0
2022-09-28T00:50:49.770Z,0
2022-09-28T00:51:52.782Z,0
2022-09-28T00:52:49.749Z,0
2022-09-28T00:53:49.738Z,0
2022-09-28T00:54:49.737Z,0
2022-09-28T00:55:49.727Z,0
2022-09-28T00:56:52.812Z,0
2022-09-28T00:57:49.792Z,0
2022-09-28T00:58:49.754Z,0
2022-09-28T00:59:49.766Z,0
2022-09-28T01:00:50.030Z,0
2022-09-28T01:01:49.937Z,0
2022-09-28T01:02:52.771Z,0
2022-09-28T01:03:49.799Z,0
2022-09-28T01:04:49.769Z,0
2022-09-28T01:05:49.767Z,0
2022-09-28T01:06:49.741Z,0
2022-09-28T01:07:52.878Z,0
2022-09-28T01:08:49.764Z,0
2022-09-28T01:09:49.745Z,0
2022-09-28T01:10:49.783Z,0
2022-09-28T01:11:49.767Z,0
2022-09-28T01:12:49.760Z,0
2022-09-28T01:13:52.974Z,0
2022-09-28T01:14:52.773Z,0
2022-09-28T01:15:49.761Z,0
2022-09-28T01:16:50.193Z,0
2022-09-28T01:17:49.792Z,0
2022-09-28T01:18:52.823Z,0
2022-09-28T01:19:49.766Z,0
2022-09-28T01:20:50.826Z,0
2022-09-28T01:21:49.819Z,0
2022-09-28T01:22:49.780Z,0
2022-09-28T01:23:49.815Z,0
2022-09-28T01:24:49.797Z,0
2022-09-28T01:25:49.780Z,0
2022-09-28T01:26:49.792Z,0
2022-09-28T01:27:49.790Z,0
2022-09-28T01:28:49.791Z,0
2022-09-28T01:29:52.707Z,0
2022-09-28T01:30:49.790Z,0
2022-09-28T01:31:50.221Z,0
2022-09-28T01:32:49.790Z,0
2022-09-28T01:33:49.813Z,0
2022-09-28T01:34:49.862Z,0
2022-09-28T01:35:49.797Z,0
2022-09-28T01:36:49.800Z,0
2022-09-28T01:37:49.827Z,0
2022-09-28T01:38:49.832Z,0
2022-09-28T01:39:49.855Z,0
2022-09-28T01:40:50.178Z,0
2022-09-28T01:41:49.813Z,0
2022-09-28T01:42:49.795Z,0
2022-09-28T01:43:49.834Z,0
2022-09-28T01:44:49.827Z,0
2022-09-28T01:45:50.059Z,0
2022-09-28T01:46:49.811Z,0
2022-09-28T01:47:49.807Z,0
2022-09-28T01:48:49.803Z,0
2022-09-28T01:49:49.854Z,0
2022-09-28T01:50:51.910Z,0
2022-09-28T01:51:49.814Z,0
2022-09-28T01:52:49.817Z,0
2022-09-28T01:53:49.853Z,0
2022-09-28T01:54:49.843Z,0
2022-09-28T01:55:49.841Z,0
2022-09-28T01:56:49.851Z,0
2022-09-28T01:57:49.827Z,0
2022-09-28T01:58:49.849Z,0
2022-09-28T01:59:49.839Z,0
2022-09-28T02:00:50.115Z,0
2022-09-28T02:01:52.793Z,0
2022-09-28T02:02:49.836Z,0
2022-09-28T02:03:49.830Z,0
2022-09-28T02:04:49.840Z,0
2022-09-28T02:05:49.855Z,0
2022-09-28T02:06:49.875Z,0
2022-09-28T02:07:49.850Z,0
2022-09-28T02:08:49.860Z,0
2022-09-28T02:09:49.915Z,0
2022-09-28T02:10:49.854Z,0
2022-09-28T02:11:49.875Z,0
2022-09-28T02:12:52.737Z,0
2022-09-28T02:13:54.020Z,0
2022-09-28T02:14:49.870Z,0
2022-09-28T02:15:49.844Z,0
2022-09-28T02:16:50.073Z,0
2022-09-28T02:17:49.762Z,0
2022-09-28T02:18:49.840Z,0
2022-09-28T02:19:49.912Z,0
2022-09-28T02:20:49.955Z,0
2022-09-28T02:21:49.880Z,0
2022-09-28T02:22:49.888Z,0
2022-09-28T02:23:52.663Z,0
2022-09-28T02:24:49.895Z,0
2022-09-28T02:25:49.984Z,0
2022-09-28T02:26:49.889Z,0
2022-09-28T02:27:49.885Z,0
2022-09-28T02:28:52.767Z,0
2022-09-28T02:29:49.892Z,0
2022-09-28T02:30:49.884Z,0
2022-09-28T02:31:50.244Z,0
2022-09-28T02:32:49.883Z,0
2022-09-28T02:33:49.901Z,0
2022-09-28T02:34:52.927Z,0
2022-09-28T02:35:49.899Z,0
2022-09-28T02:36:49.903Z,0
2022-09-28T02:37:49.959Z,0
2022-09-28T02:38:49.923Z,0
2022-09-28T02:39:50.810Z,0
2022-09-28T02:40:50.189Z,0
2022-09-28T02:41:49.916Z,0
2022-09-28T02:42:49.902Z,0
2022-09-28T02:43:49.955Z,0
2022-09-28T02:44:50.952Z,0
2022-09-28T02:45:53.330Z,0
2022-09-28T02:46:49.914Z,0
2022-09-28T02:47:49.910Z,0
2022-09-28T02:49:25.109Z,0
2022-09-28T02:49:49.923Z,0
2022-09-28T02:50:52.690Z,0
2022-09-28T02:51:50.265Z,0
2022-09-28T02:52:49.901Z,0
2022-09-28T02:53:49.927Z,0
2022-09-28T02:54:49.970Z,0
2022-09-28T02:55:49.936Z,0
2022-09-28T02:56:53.021Z,0
2022-09-28T02:57:49.973Z,0
2022-09-28T02:58:49.918Z,0
2022-09-28T02:59:49.998Z,0
2022-09-28T03:00:50.133Z,0
2022-09-28T03:01:53.029Z,0
2022-09-28T03:02:49.917Z,0
2022-09-28T03:03:49.933Z,0
2022-09-28T03:04:49.949Z,0
2022-09-28T03:05:49.929Z,0
2022-09-28T03:06:49.939Z,0
2022-09-28T03:07:52.990Z,0
2022-09-28T03:08:49.946Z,0
2022-09-28T03:09:49.974Z,0
2022-09-28T03:10:49.949Z,0
2022-09-28T03:11:50.005Z,0
2022-09-28T03:12:53.034Z,0
2022-09-28T03:13:49.998Z,0
2022-09-28T03:14:49.960Z,0
2022-09-28T03:15:55.306Z,0
2022-09-28T03:16:50.248Z,0
2022-09-28T03:17:49.971Z,0
2022-09-28T03:18:52.620Z,0
2022-09-28T03:19:49.973Z,0
2022-09-28T03:20:49.960Z,0
2022-09-28T03:21:50.003Z,0
2022-09-28T03:23:27.536Z,0
2022-09-28T03:23:52.749Z,0
2022-09-28T03:24:49.971Z,0
2022-09-28T03:25:50.052Z,0
2022-09-28T03:26:49.976Z,0
2022-09-28T03:27:50.022Z,0
2022-09-28T03:28:49.987Z,0
2022-09-28T03:29:52.853Z,0
2022-09-28T03:30:50.018Z,0
2022-09-28T03:31:50.305Z,0
2022-09-28T03:32:50.011Z,0
2022-09-28T03:33:49.832Z,0
2022-09-28T03:34:51.561Z,0
2022-09-28T03:35:50.034Z,0
2022-09-28T03:36:49.969Z,0
2022-09-28T03:37:49.980Z,0
2022-09-28T03:38:49.979Z,0
2022-09-28T03:39:49.995Z,0
2022-09-28T03:40:53.547Z,0
2022-09-28T03:41:50.021Z,0
2022-09-28T03:42:50.037Z,0
2022-09-28T03:43:49.976Z,0
2022-09-28T03:44:50.025Z,0
2022-09-28T03:45:53.136Z,0
2022-09-28T03:46:49.999Z,0
2022-09-28T03:47:50.023Z,0
2022-09-28T03:48:50.035Z,0
2022-09-28T03:49:49.999Z,0
2022-09-28T03:50:49.995Z,0
2022-09-28T03:51:49.987Z,0
2022-09-28T03:52:49.997Z,0
2022-09-28T03:53:49.994Z,0
2022-09-28T03:54:55.819Z,0
2022-09-28T03:55:49.994Z,0
2022-09-28T03:56:53.120Z,0
2022-09-28T03:57:50.026Z,0
2022-09-28T03:58:50.064Z,0
2022-09-28T03:59:49.997Z,0
2022-09-28T04:00:50.320Z,0
2022-09-28T04:01:50.347Z,0
2022-09-28T04:02:50.015Z,0
2022-09-28T04:03:50.058Z,0
2022-09-28T04:04:50.035Z,0
2022-09-28T04:05:50.028Z,0
2022-09-28T04:06:50.023Z,0
2022-09-28T04:07:50.019Z,0
2022-09-28T04:08:50.061Z,0
2022-09-28T04:09:50.024Z,0
2022-09-28T04:10:50.030Z,0
2022-09-28T04:12:10.170Z,0
2022-09-28T04:12:50.013Z,0
2022-09-28T04:13:50.068Z,0
2022-09-28T04:14:50.048Z,0
2022-09-28T04:15:50.037Z,0
2022-09-28T04:16:50.360Z,0
2022-09-28T04:17:50.037Z,0
2022-09-28T04:18:50.026Z,0
2022-09-28T04:19:50.092Z,0
2022-09-28T04:20:50.040Z,0
2022-09-28T04:21:50.039Z,0
2022-09-28T04:22:50.053Z,0
2022-09-28T04:23:50.045Z,0
2022-09-28T04:24:50.071Z,0
2022-09-28T04:25:52.792Z,0
2022-09-28T04:26:50.052Z,0
2022-09-28T04:27:50.155Z,0
2022-09-28T04:28:52.855Z,0
2022-09-28T04:29:50.144Z,0
2022-09-28T04:30:50.074Z,0
2022-09-28T04:31:50.479Z,0
2022-09-28T04:32:50.079Z,0
2022-09-28T04:33:50.071Z,0
2022-09-28T04:34:54.091Z,0
2022-09-28T04:35:52.860Z,0
2022-09-28T04:36:50.060Z,0
2022-09-28T04:37:50.082Z,0
2022-09-28T04:39:05.386Z,0
2022-09-28T04:39:55.203Z,0
2022-09-28T04:40:50.325Z,0
2022-09-28T04:41:50.070Z,0
2022-09-28T04:42:50.077Z,0
2022-09-28T04:43:50.101Z,0
2022-09-28T04:44:50.093Z,0
2022-09-28T04:45:50.369Z,0
2022-09-28T04:46:50.094Z,0
2022-09-28T04:47:50.068Z,0
2022-09-28T04:48:50.119Z,0
2022-09-28T04:49:50.082Z,0
2022-09-28T04:50:52.941Z,0
2022-09-28T04:51:50.121Z,0
2022-09-28T04:52:50.081Z,0
2022-09-28T04:53:50.094Z,0
2022-09-28T04:54:50.086Z,0
2022-09-28T04:55:50.889Z,0
2022-09-28T04:56:50.100Z,0
2022-09-28T04:57:50.118Z,0
2022-09-28T04:58:56.350Z,0
2022-09-28T04:59:50.107Z,0
2022-09-28T05:00:50.360Z,0
2022-09-28T05:01:53.169Z,0
2022-09-28T05:02:50.698Z,0
2022-09-28T05:03:50.229Z,0
2022-09-28T05:04:50.176Z,0
2022-09-28T05:05:50.128Z,0
2022-09-28T05:06:53.098Z,0
2022-09-28T05:07:49.956Z,0
2022-09-28T05:08:50.323Z,0
2022-09-28T05:09:50.119Z,0
2022-09-28T05:10:50.343Z,4
2022-09-28T05:11:50.261Z,4
2022-09-28T05:12:52.988Z,0
2022-09-28T05:13:50.361Z,0
2022-09-28T05:14:50.632Z,0
2022-09-28T05:15:52.805Z,4
2022-09-28T05:16:50.449Z,4
2022-09-28T05:17:53.553Z,4
2022-09-28T05:18:50.191Z,4
2022-09-28T05:19:50.418Z,4
2022-09-28T05:20:50.220Z,0
2022-09-28T05:21:50.127Z,4
2022-09-28T05:22:50.347Z,4
2022-09-28T05:23:53.223Z,4
2022-09-28T05:24:50.333Z,4
2022-09-28T05:25:50.232Z,4
2022-09-28T05:26:50.158Z,4
2022-09-28T05:27:50.460Z,4
2022-09-28T05:28:53.385Z,4
2022-09-28T05:29:50.163Z,4
2022-09-28T05:30:50.169Z,4
2022-09-28T05:31:51.663Z,4
2022-09-28T05:32:51.278Z,8
2022-09-28T05:33:50.388Z,12
2022-09-28T05:34:53.309Z,12
2022-09-28T05:36:01.245Z,16
2022-09-28T05:36:50.386Z,12
2022-09-28T05:37:50.431Z,16
2022-09-28T05:38:50.188Z,16
2022-09-28T05:39:52.950Z,16
2022-09-28T05:40:51.152Z,20
2022-09-28T05:41:50.160Z,20
2022-09-28T05:42:50.162Z,20
2022-09-28T05:43:50.150Z,20
2022-09-28T05:44:50.246Z,16
2022-09-28T05:45:56.636Z,12
2022-09-28T05:46:50.671Z,12
2022-09-28T05:47:50.157Z,12
2022-09-28T05:48:50.166Z,8
2022-09-28T05:49:50.198Z,8
2022-09-28T05:50:51.646Z,8
2022-09-28T05:51:50.173Z,12
2022-09-28T05:52:50.202Z,8
2022-09-28T05:53:50.171Z,8
2022-09-28T05:54:50.223Z,12
2022-09-28T05:55:50.255Z,12
2022-09-28T05:56:53.228Z,16
2022-09-28T05:57:50.192Z,20
2022-09-28T05:58:50.174Z,24
2022-09-28T05:59:50.659Z,32
2022-09-28T06:00:50.392Z,28
2022-09-28T06:01:53.063Z,28
2022-09-28T06:02:50.640Z,28
2022-09-28T06:03:50.264Z,32
2022-09-28T06:04:50.625Z,36
2022-09-28T06:05:50.242Z,40
2022-09-28T06:06:50.193Z,48
2022-09-28T06:07:52.975Z,52
2022-09-28T06:08:50.221Z,60
2022-09-28T06:09:50.228Z,64
2022-09-28T06:10:50.264Z,72
2022-09-28T06:11:50.205Z,76
2022-09-28T06:12:53.243Z,80
2022-09-28T06:13:50.222Z,84
2022-09-28T06:14:50.220Z,84
2022-09-28T06:15:50.266Z,88
2022-09-28T06:16:51.122Z,84
2022-09-28T06:17:50.258Z,80
2022-09-28T06:18:50.218Z,84
2022-09-28T06:19:50.216Z,88
2022-09-28T06:20:50.288Z,92
2022-09-28T06:21:50.292Z,104
2022-09-28T06:22:50.219Z,112
2022-09-28T06:23:55.672Z,120
2022-09-28T06:24:50.267Z,128
2022-09-28T06:25:50.074Z,132
2022-09-28T06:26:50.256Z,136
2022-09-28T06:27:50.258Z,128
2022-09-28T06:28:50.261Z,124
2022-09-28T06:29:50.246Z,120
2022-09-28T06:30:50.672Z,112
2022-09-28T06:31:50.259Z,108
2022-09-28T06:32:50.236Z,108
2022-09-28T06:33:50.280Z,116
2022-09-28T06:34:56.278Z,124
2022-09-28T06:35:50.286Z,128
2022-09-28T06:36:50.250Z,132
2022-09-28T06:37:50.274Z,140
2022-09-28T06:38:50.249Z,140
2022-09-28T06:39:50.237Z,116
2022-09-28T06:40:50.612Z,96
2022-09-28T06:41:50.274Z,76
2022-09-28T06:42:50.267Z,64
2022-09-28T06:43:50.239Z,60
2022-09-28T06:44:50.248Z,64
2022-09-28T06:45:50.592Z,76
2022-09-28T06:46:50.306Z,84
2022-09-28T06:47:50.280Z,84
2022-09-28T06:48:50.242Z,88
2022-09-28T06:49:50.284Z,104
2022-09-28T06:50:50.292Z,132
2022-09-28T06:51:50.265Z,164
2022-09-28T06:52:50.265Z,180
2022-09-28T06:53:50.298Z,164
2022-09-28T06:54:50.267Z,140
2022-09-28T06:55:56.041Z,120
2022-09-28T06:56:50.293Z,108
2022-09-28T06:57:50.270Z,100
2022-09-28T06:58:50.316Z,92
2022-09-28T06:59:50.286Z,88
2022-09-28T07:00:50.546Z,92
2022-09-28T07:01:50.495Z,104
2022-09-28T07:02:50.527Z,124
2022-09-28T07:03:55.746Z,128
2022-09-28T07:04:53.346Z,120
2022-09-28T07:05:50.295Z,116
2022-09-28T07:06:55.351Z,124
2022-09-28T07:07:50.297Z,124
2022-09-28T07:09:31.142Z,88
2022-09-28T07:09:59.853Z,76
2022-09-28T07:10:51.382Z,72
2022-09-28T07:11:50.292Z,68
2022-09-28T07:12:50.346Z,76
2022-09-28T07:13:58.066Z,108
2022-09-28T07:14:56.112Z,144
2022-09-28T07:15:50.321Z,156
2022-09-28T07:17:19.175Z,92
2022-09-28T07:18:08.407Z,60
2022-09-28T07:18:50.290Z,48
2022-09-28T07:19:50.302Z,56
2022-09-28T07:21:00.598Z,92
2022-09-28T07:22:07.890Z,148
2022-09-28T07:22:50.857Z,180
2022-09-28T07:24:04.797Z,188
2022-09-28T07:24:50.311Z,172
2022-09-28T07:25:50.499Z,156
2022-09-28T07:26:50.587Z,128
2022-09-28T07:27:50.342Z,112
2022-09-28T07:28:53.108Z,92
2022-09-28T07:29:50.366Z,80
2022-09-28T07:30:50.728Z,72
2022-09-28T07:31:50.451Z,72
2022-09-28T07:32:50.321Z,88
2022-09-28T07:33:53.398Z,112
2022-09-28T07:34:51.766Z,128
2022-09-28T07:35:50.342Z,128
2022-09-28T07:36:50.385Z,116
2022-09-28T07:37:50.355Z,104
2022-09-28T07:38:50.342Z,108
2022-09-28T07:39:53.439Z,112
2022-09-28T07:40:55.293Z,112
2022-09-28T07:41:50.350Z,116
2022-09-28T07:42:50.351Z,116
2022-09-28T07:43:50.367Z,108
2022-09-28T07:44:53.236Z,108
2022-09-28T07:45:50.666Z,108
2022-09-28T07:46:50.418Z,112
2022-09-28T07:47:50.360Z,116
2022-09-28T07:48:50.523Z,120
2022-09-28T07:49:50.406Z,136
2022-09-28T07:50:53.266Z,144
2022-09-28T07:51:50.384Z,152
2022-09-28T07:52:50.377Z,160
2022-09-28T07:53:50.377Z,148
2022-09-28T07:54:50.364Z,132
2022-09-28T07:55:53.560Z,124
2022-09-28T07:56:50.380Z,128
2022-09-28T07:57:50.375Z,128
2022-09-28T07:58:50.368Z,128
2022-09-28T07:59:50.391Z,132
2022-09-28T08:00:51.122Z,140
2022-09-28T08:01:54.294Z,152
2022-09-28T08:02:50.716Z,168
2022-09-28T08:03:50.373Z,200
2022-09-28T08:04:50.372Z,224
2022-09-28T08:05:50.394Z,228
2022-09-28T08:06:54.033Z,260
2022-09-28T08:07:50.396Z,320
2022-09-28T08:08:50.441Z,368
2022-09-28T08:09:50.391Z,420
2022-09-28T08:10:57.101Z,464
2022-09-28T08:11:50.440Z,500
2022-09-28T08:12:53.294Z,540
2022-09-28T08:13:50.393Z,644
2022-09-28T08:14:50.404Z,588
2022-09-28T08:15:50.401Z,624
2022-09-28T08:16:55.656Z,608
2022-09-28T08:17:53.160Z,560
2022-09-28T08:18:50.413Z,524
2022-09-28T08:19:50.413Z,472
2022-09-28T08:20:56.302Z,444
2022-09-28T08:21:50.444Z,452
2022-09-28T08:22:50.507Z,420
2022-09-28T08:23:53.315Z,412
2022-09-28T08:24:50.424Z,400
2022-09-28T08:25:50.412Z,336
2022-09-28T08:26:50.448Z,300
2022-09-28T08:27:50.431Z,396
2022-09-28T08:28:53.319Z,208
2022-09-28T08:29:50.418Z,164
2022-09-28T08:30:50.934Z,148
2022-09-28T08:31:50.456Z,152
2022-09-28T08:32:50.562Z,168
2022-09-28T08:33:50.613Z,184
2022-09-28T08:34:53.300Z,188
2022-09-28T08:35:50.430Z,184
2022-09-28T08:36:50.453Z,188
2022-09-28T08:38:00.020Z,208
2022-09-28T08:38:50.441Z,216
2022-09-28T08:39:53.536Z,232
2022-09-28T08:40:50.875Z,244
2022-09-28T08:41:50.525Z,268
2022-09-28T08:42:50.429Z,316
2022-09-28T08:43:50.469Z,464
2022-09-28T08:44:50.478Z,808
2022-09-28T08:45:50.674Z,1836
2022-09-28T08:46:50.479Z,544
2022-09-28T08:47:50.445Z,492
2022-09-28T08:49:33.586Z,456
2022-09-28T08:49:50.735Z,472
2022-09-28T08:50:53.498Z,552
2022-09-28T08:51:50.496Z,640
2022-09-28T08:52:50.468Z,524
2022-09-28T08:53:50.465Z,560
2022-09-28T08:54:50.464Z,580
2022-09-28T08:55:50.484Z,564
2022-09-28T08:56:50.488Z,576
2022-09-28T08:57:50.468Z,704
2022-09-28T08:58:50.462Z,756
2022-09-28T08:59:50.540Z,568
2022-09-28T09:00:51.214Z,696
2022-09-28T09:01:50.861Z,484
2022-09-28T09:02:50.755Z,524
2022-09-28T09:03:50.469Z,820
2022-09-28T09:04:50.523Z,604
2022-09-28T09:05:50.478Z,516
2022-09-28T09:06:50.494Z,856
2022-09-28T09:07:50.481Z,352
2022-09-28T09:08:50.484Z,412
2022-09-28T09:09:50.484Z,2972
2022-09-28T09:10:50.486Z,2992
2022-09-28T09:11:50.544Z,2668
2022-09-28T09:12:50.775Z,1924
2022-09-28T09:13:50.568Z,2912
2022-09-28T09:14:50.489Z,2904
2022-09-28T09:15:50.571Z,3440
2022-09-28T09:16:50.743Z,3336
2022-09-28T09:17:50.531Z,1696
2022-09-28T09:18:50.509Z,3352
2022-09-28T09:19:50.498Z,872
2022-09-28T09:20:50.549Z,2804
2022-09-28T09:21:50.514Z,1368
2022-09-28T09:22:53.346Z,1476
2022-09-28T09:23:50.575Z,980
2022-09-28T09:24:50.529Z,576
2022-09-28T09:25:50.549Z,612
2022-09-28T09:26:50.568Z,624
2022-09-28T09:27:50.563Z,668
2022-09-28T09:28:50.533Z,668
2022-09-28T09:29:50.517Z,628
2022-09-28T09:30:53.486Z,600
2022-09-28T09:31:50.251Z,644
2022-09-28T09:32:50.534Z,2340
2022-09-28T09:33:53.260Z,2340
2022-09-28T09:34:50.618Z,768
2022-09-28T09:35:50.528Z,600
2022-09-28T09:36:50.635Z,988
2022-09-28T09:37:51.213Z,480
2022-09-28T09:38:51.085Z,432
2022-09-28T09:39:50.556Z,388
2022-09-28T09:40:53.677Z,336
2022-09-28T09:41:50.669Z,300
2022-09-28T09:42:50.581Z,268
2022-09-28T09:43:50.624Z,232
2022-09-28T09:44:53.349Z,208
2022-09-28T09:45:50.822Z,216
2022-09-28T09:46:53.325Z,252
2022-09-28T09:47:50.614Z,300
2022-09-28T09:48:50.547Z,356
2022-09-28T09:49:50.725Z,400
2022-09-28T09:50:56.276Z,424
2022-09-28T09:51:50.587Z,452
2022-09-28T09:52:51.342Z,452
2022-09-28T09:53:50.732Z,420
2022-09-28T09:54:50.557Z,400
2022-09-28T09:55:53.350Z,376
2022-09-28T09:56:50.588Z,360
2022-09-28T09:57:50.591Z,384
2022-09-28T09:58:50.584Z,404
2022-09-28T09:59:50.591Z,440
2022-09-28T10:00:53.825Z,1844
2022-09-28T10:01:50.918Z,1952
2022-09-28T10:02:50.950Z,408
2022-09-28T10:03:50.593Z,344
2022-09-28T10:04:50.569Z,296
2022-09-28T10:05:50.575Z,252
2022-09-28T10:06:53.620Z,240
2022-09-28T10:07:50.599Z,236
2022-09-28T10:08:50.646Z,244
2022-09-28T10:09:50.592Z,372
2022-09-28T10:10:50.591Z,604
2022-09-28T10:11:53.435Z,236
2022-09-28T10:12:52.004Z,224
2022-09-28T10:13:50.617Z,232
2022-09-28T10:14:50.622Z,236
2022-09-28T10:15:50.632Z,244
2022-09-28T10:16:50.952Z,248
2022-09-28T10:17:53.628Z,248
2022-09-28T10:18:50.611Z,260
2022-09-28T10:19:50.605Z,272
2022-09-28T10:20:50.602Z,268
2022-09-28T10:21:50.610Z,268
2022-09-28T10:22:54.086Z,280
2022-09-28T10:23:50.656Z,308
2022-09-28T10:24:50.653Z,352
2022-09-28T10:25:50.634Z,400
2022-09-28T10:26:50.611Z,488
2022-09-28T10:27:50.661Z,564
2022-09-28T10:28:53.688Z,680
2022-09-28T10:29:50.620Z,1024
2022-09-28T10:30:52.295Z,568
2022-09-28T10:31:50.548Z,1620
2022-09-28T10:32:50.649Z,1836
2022-09-28T10:33:53.855Z,1932
2022-09-28T10:34:58.543Z,1632
2022-09-28T10:35:50.626Z,684
2022-09-28T10:36:50.796Z,784
2022-09-28T10:37:50.680Z,1832
2022-09-28T10:38:50.638Z,888
2022-09-28T10:39:53.477Z,796
2022-09-28T10:40:51.154Z,576
2022-09-28T10:41:50.675Z,1524
2022-09-28T10:42:50.662Z,580
2022-09-28T10:44:00.378Z,1296
2022-09-28T10:44:53.771Z,1440
2022-09-28T10:45:50.914Z,1148
2022-09-28T10:46:50.719Z,660
2022-09-28T10:47:50.701Z,1616
2022-09-28T10:48:50.654Z,1688
2022-09-28T10:49:54.030Z,1640
2022-09-28T10:50:53.421Z,1408
2022-09-28T10:51:50.665Z,1372
2022-09-28T10:52:50.686Z,1388
2022-09-28T10:53:50.682Z,1428
2022-09-28T10:54:50.696Z,1436
2022-09-28T10:55:53.453Z,1440
2022-09-28T10:56:50.722Z,1444
2022-09-28T10:57:50.733Z,1496
2022-09-28T10:58:50.703Z,1448
2022-09-28T10:59:50.701Z,1400
2022-09-28T11:00:50.704Z,1428
2022-09-28T11:01:54.082Z,1488
2022-09-28T11:02:50.943Z,916
2022-09-28T11:03:50.715Z,520
2022-09-28T11:04:50.762Z,1432
2022-09-28T11:05:50.701Z,524
2022-09-28T11:06:56.744Z,736
2022-09-28T11:07:50.720Z,316
2022-09-28T11:08:51.566Z,340
2022-09-28T11:09:54.401Z,368
2022-09-28T11:10:50.520Z,912
2022-09-28T11:11:50.745Z,424
2022-09-28T11:12:50.740Z,500
2022-09-28T11:13:50.716Z,416
2022-09-28T11:14:50.686Z,436
2022-09-28T11:15:50.734Z,436
2022-09-28T11:16:51.023Z,1420
2022-09-28T11:17:53.631Z,1392
2022-09-28T11:18:50.711Z,1368
2022-09-28T11:19:50.749Z,1348
2022-09-28T11:20:52.413Z,1284
2022-09-28T11:21:50.791Z,1264
2022-09-28T11:22:55.142Z,1280
2022-09-28T11:23:50.717Z,1276
2022-09-28T11:24:50.717Z,1280
2022-09-28T11:25:50.797Z,1224
2022-09-28T11:26:50.718Z,1232
2022-09-28T11:27:50.790Z,1236
2022-09-28T11:28:50.842Z,1256
2022-09-28T11:29:50.735Z,1276
2022-09-28T11:30:51.040Z,916
2022-09-28T11:31:50.730Z,1232
2022-09-28T11:32:50.787Z,1280
2022-09-28T11:33:55.845Z,1388
2022-09-28T11:35:08.794Z,1480
2022-09-28T11:35:50.775Z,1496
2022-09-28T11:36:50.763Z,1564
2022-09-28T11:37:50.843Z,1384
2022-09-28T11:38:50.777Z,1196
2022-09-28T11:39:50.769Z,1512
2022-09-28T11:40:51.206Z,552
2022-09-28T11:41:53.582Z,1528
2022-09-28T11:42:50.855Z,1396
2022-09-28T11:43:50.809Z,504
2022-09-28T11:44:50.834Z,448
2022-09-28T11:45:51.126Z,428
2022-09-28T11:46:51.142Z,408
2022-09-28T11:47:50.791Z,364
2022-09-28T11:48:50.860Z,332
2022-09-28T11:49:53.900Z,320
2022-09-28T11:50:50.643Z,320
2022-09-28T11:51:50.776Z,356
2022-09-28T11:52:50.819Z,396
2022-09-28T11:53:52.745Z,664
2022-09-28T11:54:50.787Z,1356
2022-09-28T11:55:50.768Z,1016
2022-09-28T11:56:50.814Z,468
2022-09-28T11:57:50.809Z,516
2022-09-28T11:58:50.775Z,1356
2022-09-28T11:59:50.811Z,464
2022-09-28T12:00:54.034Z,452
2022-09-28T12:01:51.001Z,624
2022-09-28T12:02:51.710Z,456
2022-09-28T12:03:51.338Z,476
2022-09-28T12:04:50.790Z,488
2022-09-28T12:05:50.782Z,628
2022-09-28T12:06:50.816Z,524
2022-09-28T12:07:50.816Z,1376
2022-09-28T12:08:50.793Z,504
2022-09-28T12:09:54.204Z,456
2022-09-28T12:10:52.502Z,1208
2022-09-28T12:11:53.964Z,648
2022-09-28T12:12:50.831Z,492
2022-09-28T12:13:50.812Z,1240
2022-09-28T12:14:50.653Z,428
2022-09-28T12:17:20.427Z,360
2022-09-28T12:17:30.341Z,368
2022-09-28T12:18:30.497Z,376
2022-09-28T12:19:30.034Z,384
2022-09-28T12:20:30.048Z,392
2022-09-28T12:21:30.047Z,404
2022-09-28T12:22:30.071Z,416
2022-09-28T12:23:30.081Z,404
2022-09-28T12:24:30.059Z,384
2022-09-28T12:25:30.065Z,376
2022-09-28T12:26:31.719Z,708
2022-09-28T12:27:30.053Z,432
2022-09-28T12:28:30.086Z,448
2022-09-28T12:29:30.059Z,1128
2022-09-28T12:30:30.154Z,992
2022-09-28T12:31:30.288Z,424
2022-09-28T12:32:30.131Z,1212
2022-09-28T12:33:30.129Z,1132
2022-09-28T12:34:30.069Z,1016
2022-09-28T12:35:30.098Z,776
2022-09-28T12:36:30.083Z,464
2022-09-28T12:37:30.080Z,884
2022-09-28T12:38:30.155Z,708
2022-09-28T12:40:02.799Z,672
2022-09-28T12:40:30.318Z,1064
2022-09-28T12:41:30.218Z,412
2022-09-28T12:42:33.298Z,396
2022-09-28T12:43:30.112Z,436
2022-09-28T12:44:30.087Z,1044
2022-09-28T12:45:35.512Z,1184
2022-09-28T12:46:30.325Z,664
2022-09-28T12:47:30.111Z,576
2022-09-28T12:48:30.113Z,908
2022-09-28T12:50:56.167Z,440
2022-09-28T12:51:07.364Z,432
2022-09-28T12:52:16.677Z,440
2022-09-28T12:53:10.004Z,1136
2022-09-28T12:54:07.833Z,1216
2022-09-28T12:55:06.953Z,1196
2022-09-28T12:56:06.757Z,1028
2022-09-28T12:57:09.542Z,932
2022-09-28T12:58:07.865Z,1132
2022-09-28T12:59:06.692Z,1060
2022-09-28T13:00:06.699Z,1000
2022-09-28T13:01:06.895Z,1000
2022-09-28T13:02:06.845Z,1020
2022-09-28T13:03:06.658Z,840
2022-09-28T13:04:09.214Z,884
2022-09-28T13:05:06.745Z,496
2022-09-28T13:06:06.709Z,460
2022-09-28T13:07:06.702Z,452
2022-09-28T13:08:09.728Z,592
2022-09-28T13:09:06.908Z,420
2022-09-28T13:10:06.790Z,428
2022-09-28T13:11:12.544Z,656
2022-09-28T13:12:06.708Z,392
2022-09-28T13:13:06.759Z,452
2022-09-28T13:14:06.719Z,364
2022-09-28T13:15:06.712Z,364
2022-09-28T13:16:06.997Z,368
2022-09-28T13:17:07.728Z,1052
2022-09-28T13:18:06.713Z,488
2022-09-28T13:19:06.786Z,452
2022-09-28T13:20:06.794Z,664
2022-09-28T13:21:06.773Z,888
2022-09-28T13:22:06.731Z,740
2022-09-28T13:23:07.771Z,700
2022-09-28T13:24:36.660Z,708
2022-09-28T13:25:06.756Z,668
2022-09-28T13:26:06.765Z,664
2022-09-28T13:27:06.760Z,576
2022-09-28T13:28:06.756Z,592
2022-09-28T13:29:06.774Z,776
2022-09-28T13:30:08.103Z,904
2022-09-28T13:31:07.856Z,908
2022-09-28T13:32:06.761Z,1000
2022-09-28T13:33:06.836Z,1088
2022-09-28T13:34:06.764Z,336
2022-09-28T13:35:09.589Z,320
2022-09-28T13:36:06.763Z,352
2022-09-28T13:37:06.785Z,376
2022-09-28T13:38:06.746Z,496
2022-09-28T13:39:06.773Z,368
2022-09-28T13:40:09.994Z,332
2022-09-28T13:41:06.826Z,316
2022-09-28T13:42:07.271Z,376
2022-09-28T13:43:06.762Z,380
2022-09-28T13:44:06.784Z,276
2022-09-28T13:45:06.789Z,272
2022-09-28T13:46:09.766Z,284
2022-09-28T13:47:06.770Z,336
2022-09-28T13:48:06.763Z,400
2022-09-28T13:49:09.958Z,340
2022-09-28T13:50:06.796Z,372
2022-09-28T13:51:09.589Z,356
2022-09-28T13:52:06.781Z,396
2022-09-28T13:53:06.803Z,432
2022-09-28T13:54:06.835Z,604
2022-09-28T13:55:09.501Z,552
2022-09-28T13:56:06.798Z,420
2022-09-28T13:57:06.787Z,384
2022-09-28T13:58:06.811Z,404
2022-09-28T13:59:06.665Z,492
2022-09-28T14:00:06.830Z,380
2022-09-28T14:01:07.941Z,392
2022-09-28T14:02:13.560Z,476
2022-09-28T14:03:07.129Z,884
2022-09-28T14:04:06.839Z,956
2022-09-28T14:05:06.807Z,912
2022-09-28T14:06:06.860Z,556
2022-09-28T14:07:06.854Z,924
2022-09-28T14:08:06.841Z,756
2022-09-28T14:09:06.845Z,272
2022-09-28T14:10:06.823Z,380